createdAt,value
2023-01-28T00:01:39.412Z,20.13
2023-01-28T00:04:07.857Z,15.85
2023-01-28T00:06:36.251Z,19.40
2023-01-28T00:09:04.864Z,21.17
2023-01-28T00:11:34.339Z,17.15
2023-01-28T00:14:04.812Z,16.02
2023-01-28T00:16:33.201Z,14.98
2023-01-28T00:19:02.875Z,16.77
2023-01-28T00:21:31.418Z,16.02
2023-01-28T00:23:59.745Z,14.35
2023-01-28T00:26:28.419Z,15.57
2023-01-28T00:28:57.117Z,13.35
2023-01-28T00:31:27.643Z,15.45
2023-01-28T00:33:57.439Z,14.00
2023-01-28T00:36:28.383Z,13.50
2023-01-28T00:38:58.197Z,13.82
2023-01-28T00:41:28.732Z,13.07
2023-01-28T00:44:02.025Z,12.63
2023-01-28T00:46:31.061Z,12.02
2023-01-28T00:48:59.885Z,12.85
2023-01-28T00:51:29.632Z,10.95
2023-01-28T00:53:58.147Z,9.50
2023-01-28T00:56:26.558Z,9.68
2023-01-28T00:58:55.070Z,7.53
2023-01-28T01:01:25.291Z,7.65
2023-01-28T01:03:57.847Z,7.15
2023-01-28T01:06:27.046Z,6.70
2023-01-28T01:08:57.083Z,7.93
2023-01-28T01:11:25.973Z,6.00
2023-01-28T01:13:57.144Z,5.70
2023-01-28T01:16:28.238Z,6.65
2023-01-28T01:18:57.649Z,6.15
2023-01-28T01:21:28.669Z,8.02
2023-01-28T01:23:58.963Z,7.82
2023-01-28T01:26:27.588Z,8.23
2023-01-28T01:28:56.585Z,8.23
2023-01-28T01:31:25.043Z,8.73
2023-01-28T01:33:54.313Z,8.55
2023-01-28T01:36:23.971Z,10.13
2023-01-28T01:38:55.116Z,11.20
2023-01-28T01:41:31.160Z,10.32
2023-01-28T01:44:01.379Z,12.63
2023-01-28T01:46:35.863Z,10.23
2023-01-28T01:49:14.382Z,11.65
2023-01-28T01:51:44.592Z,10.65
2023-01-28T01:54:13.442Z,10.82
2023-01-28T01:56:46.169Z,12.23
2023-01-28T01:59:19.115Z,10.65
2023-01-28T02:01:47.704Z,10.50
2023-01-28T02:04:23.934Z,12.73
2023-01-28T02:06:54.280Z,11.77
2023-01-28T02:09:25.051Z,9.90
2023-01-28T02:11:58.651Z,11.05
2023-01-28T02:14:31.929Z,10.73
2023-01-28T02:17:02.061Z,11.00
2023-01-28T02:19:37.483Z,9.23
2023-01-28T02:22:25.317Z,10.23
2023-01-28T02:25:05.955Z,8.35
2023-01-28T02:27:41.430Z,12.38
2023-01-28T02:30:20.967Z,10.98
2023-01-28T02:32:56.653Z,10.05
2023-01-28T02:35:32.740Z,10.57
2023-01-28T02:38:07.273Z,11.43
2023-01-28T02:41:01.140Z,12.02
2023-01-28T02:43:34.802Z,9.73
2023-01-28T02:46:33.070Z,12.10
2023-01-28T02:49:01.520Z,11.70
2023-01-28T02:51:39.365Z,10.68
2023-01-28T02:54:13.620Z,10.35
2023-01-28T02:56:49.983Z,10.50
2023-01-28T02:59:34.463Z,11.68
2023-01-28T03:02:20.615Z,9.48
2023-01-28T03:04:55.858Z,9.85
2023-01-28T03:07:27.421Z,8.50
2023-01-28T03:09:59.304Z,11.63
2023-01-28T03:12:47.830Z,12.60
2023-01-28T03:15:36.880Z,10.57
2023-01-28T03:18:29.023Z,10.68
2023-01-28T03:21:23.316Z,10.55
2023-01-28T03:24:15.282Z,10.98
2023-01-28T03:27:06.550Z,10.68
2023-01-28T03:29:53.883Z,13.82
2023-01-28T03:32:41.299Z,11.60
2023-01-28T03:35:30.124Z,11.43
2023-01-28T03:38:00.352Z,12.73
2023-01-28T03:40:30.101Z,11.55
2023-01-28T03:42:58.526Z,10.25
2023-01-28T03:45:37.538Z,11.05
2023-01-28T03:48:07.107Z,11.18
2023-01-28T03:50:36.976Z,11.25
2023-01-28T03:53:16.516Z,13.55
2023-01-28T03:55:50.874Z,11.57
2023-01-28T03:58:20.323Z,12.65
2023-01-28T04:00:49.486Z,13.07
2023-01-28T04:03:20.572Z,12.57
2023-01-28T04:06:10.727Z,13.15
2023-01-28T04:08:55.076Z,13.57
2023-01-28T04:11:31.746Z,11.30
2023-01-28T04:14:03.375Z,11.88
2023-01-28T04:16:49.339Z,9.93
2023-01-28T04:19:18.708Z,10.35
2023-01-28T04:21:49.214Z,12.00
2023-01-28T04:24:18.460Z,11.95
2023-01-28T04:26:46.923Z,12.95
2023-01-28T04:29:17.505Z,13.48
2023-01-28T04:31:46.140Z,11.80
2023-01-28T04:34:40.597Z,13.48
2023-01-28T04:37:17.563Z,11.00
2023-01-28T04:40:07.668Z,12.18
2023-01-28T04:42:57.701Z,12.55
2023-01-28T04:45:46.408Z,13.40
2023-01-28T04:48:33.058Z,12.05
2023-01-28T04:51:17.237Z,13.80
2023-01-28T04:54:10.608Z,11.82
2023-01-28T04:56:39.617Z,12.50
2023-01-28T04:59:08.634Z,12.40
2023-01-28T05:01:37.238Z,13.15
2023-01-28T05:04:06.944Z,12.93
2023-01-28T05:06:39.941Z,11.57
2023-01-28T05:09:17.333Z,12.05
2023-01-28T05:11:45.746Z,14.18
2023-01-28T05:14:15.652Z,14.93
2023-01-28T05:16:51.682Z,12.65
2023-01-28T05:19:21.347Z,12.32
2023-01-28T05:21:49.749Z,14.80
2023-01-28T05:24:29.685Z,13.55
2023-01-28T05:26:57.997Z,12.10
2023-01-28T05:29:26.332Z,14.40
2023-01-28T05:31:55.204Z,15.85
2023-01-28T05:34:23.619Z,13.55
2023-01-28T05:36:53.002Z,13.30
2023-01-28T05:39:32.882Z,14.95
2023-01-28T05:42:01.346Z,15.57
2023-01-28T05:44:30.562Z,16.25
2023-01-28T05:47:19.358Z,14.02
2023-01-28T05:49:53.997Z,12.80
2023-01-28T05:52:57.758Z,12.02
2023-01-28T05:55:34.311Z,15.63
2023-01-28T05:58:02.796Z,16.20
2023-01-28T06:00:31.173Z,16.80
2023-01-28T06:03:00.922Z,14.73
2023-01-28T06:05:29.591Z,16.00
2023-01-28T06:07:57.995Z,17.95
2023-01-28T06:10:27.076Z,16.35
2023-01-28T06:12:57.978Z,16.08
2023-01-28T06:15:53.461Z,16.92
2023-01-28T06:18:27.292Z,20.00
2023-01-28T06:20:55.945Z,19.00
2023-01-28T06:23:24.403Z,18.98
2023-01-28T06:25:55.343Z,18.95
2023-01-28T06:28:27.051Z,20.23
2023-01-28T06:30:55.494Z,14.95
2023-01-28T06:33:24.718Z,22.67
2023-01-28T06:35:53.559Z,18.73
2023-01-28T06:38:21.864Z,13.05
2023-01-28T06:40:53.487Z,19.42
2023-01-28T06:43:21.856Z,17.10
2023-01-28T06:45:52.302Z,17.52
2023-01-28T06:48:21.014Z,16.63
2023-01-28T06:50:49.801Z,14.82
2023-01-28T06:53:19.470Z,13.27
2023-01-28T06:55:47.922Z,13.18
2023-01-28T06:58:16.685Z,16.30
2023-01-28T07:00:45.322Z,13.15
2023-01-28T07:03:16.224Z,11.50
2023-01-28T07:05:44.952Z,13.48
2023-01-28T07:08:13.484Z,10.88
2023-01-28T07:10:41.976Z,13.55
2023-01-28T07:13:10.647Z,14.45
2023-01-28T07:15:39.786Z,12.25
2023-01-28T07:18:08.165Z,11.88
2023-01-28T07:20:38.306Z,10.07
2023-01-28T07:23:07.687Z,12.65
2023-01-28T07:25:37.250Z,11.70
2023-01-28T07:28:06.963Z,13.18
2023-01-28T07:30:35.589Z,10.20
2023-01-28T07:33:04.267Z,10.85
2023-01-28T07:35:33.058Z,9.23
2023-01-28T07:38:03.059Z,8.57
2023-01-28T07:40:31.259Z,10.35
2023-01-28T07:42:59.791Z,9.88
2023-01-28T07:45:30.680Z,9.77
2023-01-28T07:48:00.577Z,10.40
2023-01-28T07:50:30.286Z,10.77
2023-01-28T07:52:59.507Z,13.18
2023-01-28T07:55:31.369Z,12.85
2023-01-28T07:58:01.415Z,11.35
2023-01-28T08:00:32.099Z,11.30
2023-01-28T08:03:02.277Z,10.90
2023-01-28T08:08:39.941Z,9.02
2023-01-28T08:11:11.741Z,9.82
2023-01-28T08:13:39.902Z,11.05
2023-01-28T08:16:09.363Z,9.13
2023-01-28T08:18:37.785Z,9.68
2023-01-28T08:21:06.586Z,8.68
2023-01-28T08:23:35.985Z,9.38
2023-01-28T08:26:04.228Z,11.55
2023-01-28T08:28:34.305Z,9.32
2023-01-28T08:31:03.287Z,10.02
2023-01-28T08:33:31.795Z,8.68
2023-01-28T08:36:00.164Z,8.70
2023-01-28T08:38:28.603Z,8.90
2023-01-28T08:40:59.205Z,10.63
2023-01-28T08:43:28.030Z,11.77
2023-01-28T08:45:57.605Z,9.68
2023-01-28T08:48:25.768Z,8.85
2023-01-28T08:50:54.348Z,8.93
2023-01-28T08:53:22.582Z,8.32
2023-01-28T08:55:51.117Z,8.70
2023-01-28T08:58:19.788Z,8.32
2023-01-28T09:00:49.951Z,9.40
2023-01-28T09:03:20.133Z,8.68
2023-01-28T09:05:49.681Z,6.55
2023-01-28T09:08:18.157Z,8.30
2023-01-28T09:10:46.848Z,8.02
2023-01-28T09:13:16.981Z,8.18
2023-01-28T09:15:45.718Z,7.28
2023-01-28T09:18:13.967Z,9.13
2023-01-28T09:20:43.780Z,8.10
2023-01-28T09:23:12.469Z,9.45
2023-01-28T09:25:40.854Z,8.52
2023-01-28T09:28:09.443Z,8.60
2023-01-28T09:30:39.875Z,9.20
2023-01-28T09:33:09.219Z,10.85
2023-01-28T09:35:37.954Z,8.55
2023-01-28T09:38:07.862Z,10.48
2023-01-28T09:40:39.617Z,8.60
2023-01-28T09:43:34.715Z,8.70
2023-01-28T09:46:06.258Z,9.88
2023-01-28T09:48:38.591Z,8.73
2023-01-28T09:51:11.860Z,9.05
2023-01-28T09:53:49.614Z,8.13
2023-01-28T09:56:27.824Z,7.65
2023-01-28T09:58:58.114Z,9.07
2023-01-28T10:01:40.952Z,6.88
2023-01-28T10:04:23.425Z,8.18
2023-01-28T10:07:08.297Z,7.95
2023-01-28T10:09:47.749Z,7.63
2023-01-28T10:12:30.618Z,8.57
2023-01-28T10:15:22.572Z,7.70
2023-01-28T10:18:03.894Z,7.55
2023-01-28T10:20:44.819Z,6.13
2023-01-28T10:23:19.501Z,10.55
2023-01-28T10:25:50.438Z,6.90
2023-01-28T10:28:23.186Z,7.00
2023-01-28T10:30:52.607Z,5.82
2023-01-28T10:33:25.075Z,6.68
2023-01-28T10:35:53.519Z,8.57
2023-01-28T10:38:24.658Z,5.65
2023-01-28T10:41:02.768Z,4.75
2023-01-28T10:43:33.956Z,6.70
2023-01-28T10:46:09.314Z,4.85
2023-01-28T10:48:43.361Z,5.05
2023-01-28T10:51:11.862Z,5.97
2023-01-28T10:53:41.800Z,6.15
2023-01-28T10:56:16.131Z,9.60
2023-01-28T10:59:00.053Z,4.05
2023-01-28T11:01:43.202Z,4.43
2023-01-28T11:04:23.517Z,3.88
2023-01-28T11:06:57.311Z,4.18
2023-01-28T11:09:29.713Z,3.60
2023-01-28T11:12:00.675Z,3.50
2023-01-28T11:14:29.631Z,3.33
2023-01-28T11:16:59.825Z,3.60
2023-01-28T11:19:35.493Z,3.50
2023-01-28T11:22:04.582Z,5.60
2023-01-28T11:24:35.460Z,3.30
2023-01-28T11:27:16.857Z,4.13
2023-01-28T11:29:46.319Z,3.40
2023-01-28T11:32:20.306Z,3.58
2023-01-28T11:34:54.259Z,5.20
2023-01-28T11:37:24.500Z,3.65
2023-01-28T11:40:03.591Z,4.20
2023-01-28T11:42:34.274Z,10.02
2023-01-28T11:45:02.905Z,3.15
2023-01-28T11:47:58.716Z,2.70
2023-01-28T11:50:38.864Z,2.83
2023-01-28T11:53:27.106Z,5.60
2023-01-28T11:56:10.229Z,4.97
2023-01-28T11:58:53.028Z,4.85
2023-01-28T12:01:26.417Z,7.00
2023-01-28T12:04:23.275Z,5.72
2023-01-28T12:07:13.040Z,9.75
2023-01-28T12:09:53.207Z,3.05
2023-01-28T12:12:49.492Z,3.88
2023-01-28T12:16:02.810Z,4.18
2023-01-28T12:19:09.018Z,7.43
2023-01-28T12:21:47.750Z,8.50
2023-01-28T12:24:27.552Z,4.00
2023-01-28T12:27:04.707Z,4.95
2023-01-28T12:29:40.559Z,7.10
2023-01-28T12:32:25.119Z,5.95
2023-01-28T12:35:17.599Z,6.05
2023-01-28T12:38:00.235Z,8.43
2023-01-28T12:40:59.144Z,5.68
2023-01-28T12:43:40.540Z,6.82
2023-01-28T12:46:18.798Z,6.45
2023-01-28T12:48:51.137Z,7.20
2023-01-28T12:51:25.411Z,7.60
2023-01-28T12:53:58.107Z,7.60
2023-01-28T12:56:31.292Z,6.50
2023-01-28T12:59:03.931Z,6.35
2023-01-28T13:01:39.128Z,6.53
2023-01-28T13:04:14.038Z,7.07
2023-01-28T13:06:48.538Z,8.40
2023-01-28T13:09:20.305Z,14.40
2023-01-28T13:11:51.096Z,12.50
2023-01-28T13:14:22.130Z,9.82
2023-01-28T13:16:50.385Z,7.40
2023-01-28T13:19:27.248Z,7.55
2023-01-28T13:21:56.705Z,6.28
2023-01-28T13:24:33.980Z,7.65
2023-01-28T13:27:14.372Z,5.72
2023-01-28T13:29:44.297Z,6.60
2023-01-28T13:32:34.976Z,7.97
2023-01-28T13:35:07.501Z,6.45
2023-01-28T13:37:40.960Z,5.38
2023-01-28T13:40:25.331Z,6.43
2023-01-28T13:43:02.353Z,5.32
2023-01-28T13:45:32.256Z,5.30
2023-01-28T13:48:23.931Z,4.50
2023-01-28T13:50:54.729Z,4.45
2023-01-28T13:53:36.774Z,4.15
2023-01-28T13:56:11.630Z,3.90
2023-01-28T13:59:14.044Z,4.03
2023-01-28T14:02:02.342Z,4.63
2023-01-28T14:04:45.299Z,5.25
2023-01-28T14:07:43.225Z,4.45
2023-01-28T14:10:28.614Z,4.55
2023-01-28T14:13:14.036Z,4.43
2023-01-28T14:15:57.501Z,5.05
2023-01-28T14:18:29.795Z,4.07
2023-01-28T14:21:02.779Z,4.80
2023-01-28T14:23:32.978Z,4.57
2023-01-28T14:26:16.191Z,4.15
2023-01-28T14:28:53.701Z,5.30
2023-01-28T14:31:28.154Z,7.32
2023-01-28T14:34:00.186Z,4.05
2023-01-28T14:36:29.569Z,7.00
2023-01-28T14:38:58.621Z,9.23
2023-01-28T14:41:29.774Z,4.00
2023-01-28T14:43:59.063Z,5.15
2023-01-28T14:46:36.409Z,4.50
2023-01-28T14:49:21.610Z,3.15
2023-01-28T14:52:13.095Z,6.07
2023-01-28T14:54:53.726Z,4.28
2023-01-28T14:57:53.682Z,4.90
2023-01-28T15:00:24.619Z,7.40
2023-01-28T15:02:52.949Z,6.82
2023-01-28T15:05:24.050Z,6.00
2023-01-28T15:07:52.945Z,7.35
2023-01-28T15:10:22.693Z,5.20
2023-01-28T15:12:57.690Z,4.13
2023-01-28T15:15:30.678Z,5.10
2023-01-28T15:18:04.070Z,5.63
2023-01-28T15:20:33.442Z,5.60
2023-01-28T15:23:03.279Z,4.97
2023-01-28T15:25:32.055Z,8.07
2023-01-28T15:28:03.389Z,5.07
2023-01-28T15:30:33.732Z,5.47
2023-01-28T15:33:04.958Z,16.58
2023-01-28T15:35:34.469Z,9.25
2023-01-28T15:38:05.409Z,6.72
2023-01-28T15:40:43.707Z,6.10
2023-01-28T15:43:21.060Z,5.70
2023-01-28T15:45:52.242Z,7.00
2023-01-28T15:48:20.766Z,5.90
2023-01-28T15:50:49.204Z,6.88
2023-01-28T15:53:18.009Z,8.10
2023-01-28T15:55:46.805Z,12.82
2023-01-28T15:58:21.202Z,8.02
2023-01-28T16:00:50.873Z,8.77
2023-01-28T16:03:22.025Z,10.10
2023-01-28T16:06:00.626Z,9.18
2023-01-28T16:08:33.910Z,8.20
2023-01-28T16:11:02.649Z,10.45
2023-01-28T16:13:34.746Z,8.05
2023-01-28T16:16:06.037Z,15.00
2023-01-28T16:18:41.169Z,10.32
2023-01-28T16:21:12.721Z,10.27
2023-01-28T16:23:41.362Z,10.48
2023-01-28T16:26:23.224Z,9.95
2023-01-28T16:28:53.415Z,9.82
2023-01-28T16:31:22.013Z,7.80
2023-01-28T16:33:50.813Z,7.13
2023-01-28T16:36:20.113Z,8.65
2023-01-28T16:38:48.578Z,7.82
2023-01-28T16:41:25.378Z,7.57
2023-01-28T16:43:55.432Z,5.28
2023-01-28T16:46:23.614Z,6.57
2023-01-28T16:48:52.162Z,7.05
2023-01-28T16:51:21.362Z,5.60
2023-01-28T16:53:51.373Z,5.90
2023-01-28T16:56:44.516Z,5.50
2023-01-28T16:59:13.865Z,7.45
2023-01-28T17:01:42.626Z,6.95
2023-01-28T17:04:12.943Z,8.73
2023-01-28T17:06:44.590Z,7.18
2023-01-28T17:09:14.835Z,8.07
2023-01-28T17:11:43.998Z,8.95
2023-01-28T17:14:13.724Z,6.88
2023-01-28T17:16:42.112Z,6.55
2023-01-28T17:19:10.566Z,9.35
2023-01-28T17:21:39.245Z,9.10
2023-01-28T17:24:08.811Z,8.07
2023-01-28T17:26:38.315Z,7.57
2023-01-28T17:29:07.447Z,7.82
2023-01-28T17:31:37.497Z,6.28
2023-01-28T17:34:07.307Z,6.13
2023-01-28T17:36:36.023Z,8.40
2023-01-28T17:39:06.133Z,10.40
2023-01-28T17:41:34.915Z,12.60
2023-01-28T17:44:04.847Z,9.30
2023-01-28T17:46:33.498Z,7.10
2023-01-28T17:49:04.702Z,9.90
2023-01-28T17:51:33.226Z,8.75
2023-01-28T17:54:01.739Z,7.72
2023-01-28T17:56:31.497Z,8.13
2023-01-28T17:59:02.684Z,8.63
2023-01-28T18:01:32.547Z,6.93
2023-01-28T18:04:01.390Z,8.57
2023-01-28T18:06:32.995Z,7.25
2023-01-28T18:09:03.039Z,11.70
2023-01-28T18:11:33.327Z,10.15
2023-01-28T18:14:02.146Z,5.95
2023-01-28T18:16:30.531Z,6.88
2023-01-28T18:18:58.778Z,9.90
2023-01-28T18:21:51.362Z,12.57
2023-01-28T18:24:21.708Z,14.85
2023-01-28T18:26:50.915Z,11.07
2023-01-28T18:29:20.968Z,13.90
2023-01-28T18:31:50.438Z,10.07
2023-01-28T18:34:19.331Z,7.38
2023-01-28T18:36:49.756Z,5.82
2023-01-28T18:39:19.130Z,5.57
2023-01-28T18:41:47.981Z,6.78
2023-01-28T18:44:17.078Z,6.03
2023-01-28T18:46:45.655Z,6.20
2023-01-28T18:49:14.540Z,6.07
2023-01-28T18:51:44.012Z,6.65
2023-01-28T18:54:16.028Z,6.07
2023-01-28T18:56:44.729Z,7.15
2023-01-28T18:59:14.312Z,8.48
2023-01-28T19:01:43.942Z,13.30
2023-01-28T19:04:12.554Z,14.93
2023-01-28T19:06:40.865Z,13.38
2023-01-28T19:09:12.492Z,12.05
2023-01-28T19:11:43.013Z,11.35
2023-01-28T19:14:14.189Z,13.43
2023-01-28T19:16:42.631Z,14.75
2023-01-28T19:19:11.143Z,8.68
2023-01-28T19:21:39.633Z,11.32
2023-01-28T19:24:10.243Z,9.57
2023-01-28T19:26:39.143Z,7.70
2023-01-28T19:29:10.697Z,6.88
2023-01-28T19:31:40.257Z,7.18
2023-01-28T19:34:08.926Z,7.32
2023-01-28T19:36:37.441Z,8.68
2023-01-28T19:39:08.613Z,7.00
2023-01-28T19:41:37.792Z,9.25
2023-01-28T19:44:06.639Z,8.27
2023-01-28T19:46:37.623Z,7.80
2023-01-28T19:49:06.099Z,8.10
2023-01-28T19:51:34.578Z,8.80
2023-01-28T19:54:03.411Z,8.75
2023-01-28T19:56:36.224Z,8.63
2023-01-28T19:59:05.247Z,8.27
2023-01-28T20:01:33.850Z,7.65
2023-01-28T20:04:04.939Z,8.75
2023-01-28T20:06:33.961Z,6.90
2023-01-28T20:09:04.173Z,5.78
2023-01-28T20:11:32.769Z,5.82
2023-01-28T20:14:01.212Z,6.53
2023-01-28T20:16:31.290Z,6.60
2023-01-28T20:19:01.301Z,6.00
2023-01-28T20:21:32.057Z,5.78
2023-01-28T20:24:02.349Z,6.13
2023-01-28T20:26:33.247Z,6.43
2023-01-28T20:29:02.374Z,5.78
2023-01-28T20:31:30.736Z,6.72
2023-01-28T20:33:59.149Z,5.55
2023-01-28T20:36:27.423Z,5.78
2023-01-28T20:38:57.353Z,5.03
2023-01-28T20:41:27.131Z,5.60
2023-01-28T20:43:56.180Z,4.63
2023-01-28T20:46:27.883Z,5.07
2023-01-28T20:48:57.513Z,7.65
2023-01-28T20:51:28.223Z,6.57
2023-01-28T20:53:59.257Z,5.68
2023-01-28T20:56:30.010Z,6.88
2023-01-28T20:59:00.412Z,5.65
2023-01-28T21:01:31.997Z,4.72
2023-01-28T21:04:01.067Z,5.07
2023-01-28T21:06:29.941Z,6.90
2023-01-28T21:08:59.644Z,6.47
2023-01-28T21:11:28.653Z,8.30
2023-01-28T21:13:57.550Z,8.75
2023-01-28T21:16:26.194Z,9.45
2023-01-28T21:18:54.741Z,10.98
2023-01-28T21:21:25.429Z,9.73
2023-01-28T21:23:54.918Z,8.20
2023-01-28T21:26:24.662Z,7.57
2023-01-28T21:28:53.327Z,9.23
2023-01-28T21:31:23.562Z,6.13
2023-01-28T21:33:55.345Z,9.50
2023-01-28T21:36:25.026Z,7.90
2023-01-28T21:38:54.075Z,8.40
2023-01-28T21:41:22.940Z,9.05
2023-01-28T21:43:53.861Z,8.82
2023-01-28T21:46:23.272Z,9.07
2023-01-28T21:48:54.997Z,8.23
2023-01-28T21:51:45.968Z,7.80
2023-01-28T21:54:16.353Z,5.65
2023-01-28T21:56:45.380Z,6.90
2023-01-28T21:59:32.843Z,6.40
2023-01-28T22:02:02.771Z,7.35
2023-01-28T22:04:32.682Z,6.22
2023-01-28T22:07:01.488Z,5.65
2023-01-28T22:09:30.566Z,5.93
2023-01-28T22:11:58.910Z,5.93
2023-01-28T22:14:28.788Z,5.15
2023-01-28T22:16:57.179Z,5.75
2023-01-28T22:19:25.410Z,6.22
2023-01-28T22:21:53.845Z,7.50
2023-01-28T22:24:24.810Z,7.03
2023-01-28T22:26:55.048Z,8.52
2023-01-28T22:29:24.497Z,6.20
2023-01-28T22:31:55.585Z,6.63
2023-01-28T22:34:24.777Z,7.03
2023-01-28T22:36:52.738Z,6.78
2023-01-28T22:39:21.022Z,5.35
2023-01-28T22:41:49.203Z,6.38
2023-01-28T22:44:19.928Z,5.47
2023-01-28T22:46:48.899Z,5.05
2023-01-28T22:49:19.331Z,6.18
2023-01-28T22:51:47.422Z,5.88
2023-01-28T22:54:16.126Z,8.45
2023-01-28T22:56:44.499Z,8.60
2023-01-28T22:59:12.927Z,8.75
2023-01-28T23:01:41.799Z,8.05
2023-01-28T23:04:09.977Z,9.10
2023-01-28T23:06:39.728Z,8.77
2023-01-28T23:09:08.139Z,6.85
2023-01-28T23:11:36.485Z,7.47
2023-01-28T23:14:22.847Z,5.57
2023-01-28T23:17:09.445Z,7.72
2023-01-28T23:19:55.179Z,7.50
2023-01-28T23:22:45.681Z,7.63
2023-01-28T23:25:14.305Z,7.05
2023-01-28T23:27:42.733Z,8.65
2023-01-28T23:30:12.636Z,9.13
2023-01-28T23:32:45.011Z,7.55
2023-01-28T23:35:13.749Z,7.72
2023-01-28T23:37:43.538Z,9.02
2023-01-28T23:40:14.086Z,8.57
2023-01-28T23:42:42.730Z,8.85
2023-01-28T23:45:11.907Z,10.50
2023-01-28T23:47:40.257Z,9.82
2023-01-28T23:50:09.922Z,8.65
2023-01-28T23:52:37.991Z,8.27
2023-01-28T23:55:09.394Z,8.60
2023-01-28T23:57:38.148Z,6.57
